createdAt,value
2018-01-14T00:02:03.489Z,5.4
2018-01-14T00:07:03.187Z,5.3
2018-01-14T00:12:03.589Z,5.3
2018-01-14T00:17:03.296Z,5.3
2018-01-14T00:22:02.860Z,5.3
2018-01-14T00:27:03.094Z,5.2
2018-01-14T00:32:03.460Z,5.2
2018-01-14T00:37:03.366Z,5.2
2018-01-14T00:42:03.146Z,5.1
2018-01-14T00:47:03.689Z,5.1
2018-01-14T00:52:03.032Z,5.0
2018-01-14T00:57:03.595Z,5.0
2018-01-14T01:02:03.184Z,5.0
2018-01-14T01:07:03.603Z,4.9
2018-01-14T01:12:03.367Z,4.9
2018-01-14T01:17:03.465Z,4.8
2018-01-14T01:22:03.012Z,4.8
2018-01-14T01:27:03.630Z,4.9
2018-01-14T01:32:02.889Z,4.8
2018-01-14T01:37:03.020Z,4.8
2018-01-14T01:42:03.398Z,4.8
2018-01-14T01:47:02.926Z,4.7
2018-01-14T01:52:03.689Z,4.7
2018-01-14T01:57:03.341Z,4.7
2018-01-14T02:02:03.297Z,4.5
2018-01-14T02:07:03.360Z,4.5
2018-01-14T02:12:03.616Z,4.4
2018-01-14T02:17:03.558Z,4.4
2018-01-14T02:22:03.370Z,4.4
2018-01-14T02:27:03.258Z,4.3
2018-01-14T02:32:03.127Z,4.4
2018-01-14T02:37:03.415Z,4.3
2018-01-14T02:42:03.018Z,4.3
2018-01-14T02:47:03.043Z,4.3
2018-01-14T02:52:02.819Z,4.3
2018-01-14T02:57:02.984Z,4.3
2018-01-14T03:02:02.934Z,4.2
2018-01-14T03:07:02.897Z,4.1
2018-01-14T03:12:03.067Z,4.2
2018-01-14T03:17:02.916Z,4.2
2018-01-14T03:22:03.143Z,4.2
2018-01-14T03:27:02.904Z,4.3
2018-01-14T03:32:03.693Z,4.2
2018-01-14T03:37:03.322Z,4.2
2018-01-14T03:42:03.327Z,4.2
2018-01-14T03:47:03.755Z,4.1
2018-01-14T03:52:02.786Z,4.2
2018-01-14T03:57:02.932Z,4.2
2018-01-14T04:02:03.470Z,4.2
2018-01-14T04:07:03.138Z,4.2
2018-01-14T04:12:03.375Z,4.2
2018-01-14T04:17:03.448Z,4.2
2018-01-14T04:22:03.807Z,4.2
2018-01-14T04:27:03.087Z,4.3
2018-01-14T04:32:03.186Z,4.3
2018-01-14T04:37:02.944Z,4.2
2018-01-14T04:42:03.073Z,4.2
2018-01-14T04:47:03.197Z,4.2
2018-01-14T04:52:03.142Z,4.1
2018-01-14T04:57:03.050Z,4.1
2018-01-14T05:02:03.212Z,4.1
2018-01-14T05:07:03.470Z,4.1
2018-01-14T05:12:03.621Z,4.0
2018-01-14T05:17:03.048Z,4.0
2018-01-14T05:22:03.403Z,4.0
2018-01-14T05:27:03.231Z,4.0
2018-01-14T05:32:03.351Z,4.0
2018-01-14T05:37:03.374Z,3.9
2018-01-14T05:42:02.854Z,4.0
2018-01-14T05:47:04.030Z,4.0
2018-01-14T05:52:03.157Z,4.0
2018-01-14T05:57:03.524Z,4.0
2018-01-14T06:02:03.318Z,4.0
2018-01-14T06:07:03.517Z,3.9
2018-01-14T06:12:02.833Z,4.0
2018-01-14T06:17:03.315Z,3.9
2018-01-14T06:22:03.043Z,4.0
2018-01-14T06:27:03.268Z,3.9
2018-01-14T06:32:03.426Z,3.9
2018-01-14T06:37:02.905Z,3.9
2018-01-14T06:42:03.532Z,3.9
2018-01-14T06:47:13.389Z,3.9
2018-01-14T06:52:02.828Z,3.9
2018-01-14T06:57:03.202Z,3.9
2018-01-14T07:02:13.687Z,3.8
2018-01-14T07:07:02.734Z,3.8
2018-01-14T07:12:03.544Z,3.8
2018-01-14T07:17:13.144Z,3.9
2018-01-14T07:22:03.123Z,3.8
2018-01-14T07:27:03.221Z,3.9
2018-01-14T07:32:13.161Z,3.9
2018-01-14T07:37:03.657Z,4.0
2018-01-14T07:42:03.626Z,4.0
2018-01-14T07:47:13.858Z,4.0
2018-01-14T07:52:03.218Z,4.0
2018-01-14T07:57:03.141Z,4.0
2018-01-14T08:02:13.268Z,4.1
2018-01-14T08:07:03.078Z,4.3
2018-01-14T08:12:03.125Z,4.3
2018-01-14T08:17:09.370Z,4.4
2018-01-14T08:22:03.507Z,4.4
2018-01-14T08:27:03.149Z,4.4
2018-01-14T08:32:17.793Z,4.5
2018-01-14T08:37:03.581Z,4.6
2018-01-14T08:42:03.326Z,4.7
2018-01-14T08:47:13.509Z,4.7
2018-01-14T08:52:03.348Z,4.8
2018-01-14T08:57:02.957Z,4.8
2018-01-14T09:02:13.326Z,4.8
2018-01-14T09:07:03.772Z,5.1
2018-01-14T09:12:03.487Z,5.2
2018-01-14T09:17:14.053Z,5.2
2018-01-14T09:22:03.612Z,5.4
2018-01-14T09:27:03.031Z,5.5
2018-01-14T09:32:17.328Z,5.7
2018-01-14T09:37:02.738Z,5.7
2018-01-14T09:42:03.355Z,5.9
2018-01-14T09:47:13.438Z,5.9
2018-01-14T09:52:02.938Z,6.1
2018-01-14T09:57:02.874Z,6.2
2018-01-14T10:02:13.868Z,6.3
2018-01-14T10:07:03.476Z,6.4
2018-01-14T10:12:03.288Z,6.4
2018-01-14T10:17:13.249Z,6.4
2018-01-14T10:22:02.892Z,6.8
2018-01-14T10:27:03.730Z,6.8
2018-01-14T10:32:13.708Z,6.9
2018-01-14T10:37:03.072Z,7.1
2018-01-14T10:42:02.912Z,7.2
2018-01-14T10:47:13.134Z,7.2
2018-01-14T10:52:02.821Z,7.2
2018-01-14T10:57:02.778Z,7.4
2018-01-14T11:02:13.166Z,7.4
2018-01-14T11:07:03.065Z,7.5
2018-01-14T11:12:03.270Z,7.4
2018-01-14T11:17:13.486Z,7.4
2018-01-14T11:22:02.838Z,7.3
2018-01-14T11:27:03.579Z,7.2
2018-01-14T11:32:13.115Z,7.1
2018-01-14T11:37:03.579Z,7.1
2018-01-14T11:42:02.967Z,7.1
2018-01-14T11:47:14.073Z,7.1
2018-01-14T11:52:03.351Z,7.1
2018-01-14T11:57:03.285Z,7.2
2018-01-14T12:02:13.458Z,7.1
2018-01-14T12:07:02.699Z,7.1
2018-01-14T12:12:02.793Z,7.2
2018-01-14T12:17:18.217Z,7.1
2018-01-14T12:22:02.760Z,7.1
2018-01-14T12:27:03.435Z,7.1
2018-01-14T12:32:13.447Z,7.1
2018-01-14T12:37:02.989Z,7.1
2018-01-14T12:42:02.796Z,7.1
2018-01-14T12:47:13.930Z,7.0
2018-01-14T12:52:03.492Z,7.0
2018-01-14T12:57:02.979Z,7.0
2018-01-14T13:02:12.365Z,6.9
2018-01-14T13:07:03.456Z,6.9
2018-01-14T13:12:03.334Z,6.9
2018-01-14T13:17:13.107Z,6.9
2018-01-14T13:22:02.976Z,6.9
2018-01-14T13:27:03.626Z,6.8
2018-01-14T13:32:14.019Z,6.8
2018-01-14T13:37:03.037Z,6.8
2018-01-14T13:42:02.823Z,6.8
2018-01-14T13:47:13.738Z,6.7
2018-01-14T13:52:03.314Z,6.7
2018-01-14T13:57:02.995Z,6.6
2018-01-14T14:02:11.095Z,6.5
2018-01-14T14:07:03.600Z,6.4
2018-01-14T14:12:03.477Z,6.4
2018-01-14T14:17:13.645Z,6.3
2018-01-14T14:22:02.892Z,6.4
2018-01-14T14:27:03.631Z,6.3
2018-01-14T14:32:17.802Z,6.3
2018-01-14T14:37:03.083Z,6.1
2018-01-14T14:42:02.811Z,6.1
2018-01-14T14:47:13.026Z,6.0
2018-01-14T14:52:02.860Z,5.9
2018-01-14T14:57:03.470Z,5.9
2018-01-14T15:02:13.512Z,5.7
2018-01-14T15:07:03.158Z,5.7
2018-01-14T15:12:03.323Z,5.7
2018-01-14T15:17:12.635Z,5.5
2018-01-14T15:22:02.859Z,5.5
2018-01-14T15:27:02.875Z,5.5
2018-01-14T15:32:08.728Z,5.5
2018-01-14T15:37:03.281Z,5.4
2018-01-14T15:42:02.980Z,5.4
2018-01-14T15:47:13.144Z,5.3
2018-01-14T15:52:03.372Z,5.3
2018-01-14T15:57:03.212Z,5.2
2018-01-14T16:02:12.959Z,5.0
2018-01-14T16:07:03.155Z,5.0
2018-01-14T16:12:03.050Z,4.9
2018-01-14T16:17:09.051Z,4.9
2018-01-14T16:22:03.832Z,4.9
2018-01-14T16:27:03.092Z,4.9
2018-01-14T16:32:05.082Z,5.0
2018-01-14T16:37:02.744Z,4.9
2018-01-14T16:42:03.269Z,4.8
2018-01-14T16:47:03.673Z,4.7
2018-01-14T16:52:02.824Z,4.7
2018-01-14T16:57:03.410Z,4.7
2018-01-14T17:02:03.264Z,4.6
2018-01-14T17:07:03.881Z,4.6
2018-01-14T17:12:02.900Z,4.6
2018-01-14T17:17:03.259Z,4.6
2018-01-14T17:22:03.642Z,4.5
2018-01-14T17:27:03.472Z,4.5
2018-01-14T17:32:03.063Z,4.5
2018-01-14T17:37:03.252Z,4.5
2018-01-14T17:42:03.334Z,4.5
2018-01-14T17:47:03.543Z,4.4
2018-01-14T17:52:03.879Z,4.4
2018-01-14T17:57:02.845Z,4.4
2018-01-14T18:02:03.448Z,4.3
2018-01-14T18:07:02.921Z,4.3
2018-01-14T18:12:03.367Z,4.3
2018-01-14T18:17:09.172Z,4.3
2018-01-14T18:22:02.938Z,4.2
2018-01-14T18:27:03.276Z,4.2
2018-01-14T18:32:05.132Z,4.2
2018-01-14T18:37:03.622Z,4.2
2018-01-14T18:42:02.783Z,4.2
2018-01-14T18:47:03.920Z,4.2
2018-01-14T18:52:02.754Z,4.2
2018-01-14T18:57:03.145Z,4.2
2018-01-14T19:02:04.001Z,4.1
2018-01-14T19:07:03.740Z,4.1
2018-01-14T19:12:03.169Z,4.0
2018-01-14T19:17:03.978Z,4.0
2018-01-14T19:22:02.788Z,4.0
2018-01-14T19:27:03.528Z,3.9
2018-01-14T19:32:05.361Z,3.7
2018-01-14T19:37:03.857Z,3.7
2018-01-14T19:42:02.754Z,3.7
2018-01-14T19:47:03.602Z,3.7
2018-01-14T19:52:03.561Z,3.7
2018-01-14T19:57:03.055Z,3.8
2018-01-14T20:02:06.012Z,3.9
2018-01-14T20:07:03.436Z,3.9
2018-01-14T20:12:02.895Z,3.8
2018-01-14T20:17:03.822Z,3.8
2018-01-14T20:22:03.293Z,3.8
2018-01-14T20:27:02.844Z,3.7
2018-01-14T20:32:02.998Z,3.7
2018-01-14T20:37:03.218Z,3.7
2018-01-14T20:42:03.465Z,3.7
2018-01-14T20:47:03.498Z,3.7
2018-01-14T20:52:03.737Z,3.7
2018-01-14T20:57:02.943Z,3.7
2018-01-14T21:02:03.113Z,3.6
2018-01-14T21:07:02.873Z,3.6
2018-01-14T21:12:03.340Z,3.5
2018-01-14T21:17:03.336Z,3.3
2018-01-14T21:22:03.361Z,3.3
2018-01-14T21:27:03.420Z,3.2
2018-01-14T21:32:03.712Z,3.0
2018-01-14T21:37:03.587Z,2.9
2018-01-14T21:42:02.670Z,2.9
2018-01-14T21:47:03.246Z,3.0
2018-01-14T21:52:03.347Z,2.9
2018-01-14T21:57:03.617Z,2.9
2018-01-14T22:02:03.498Z,2.9
2018-01-14T22:07:02.776Z,2.8
2018-01-14T22:12:03.386Z,2.7
2018-01-14T22:17:03.291Z,2.7
2018-01-14T22:22:03.459Z,2.6
2018-01-14T22:27:03.647Z,2.5
2018-01-14T22:32:03.630Z,2.5
2018-01-14T22:37:02.846Z,2.5
2018-01-14T22:42:03.022Z,2.4
2018-01-14T22:47:03.350Z,2.4
2018-01-14T22:52:03.304Z,2.4
2018-01-14T22:57:03.171Z,2.3
2018-01-14T23:02:03.552Z,2.2
2018-01-14T23:07:03.295Z,2.2
2018-01-14T23:12:03.441Z,2.1
2018-01-14T23:22:03.426Z,2.1
2018-01-14T23:27:03.123Z,2.1
2018-01-14T23:32:03.248Z,2.1
2018-01-14T23:37:02.726Z,2.1
2018-01-14T23:42:02.950Z,2.0
2018-01-14T23:47:02.901Z,1.9
2018-01-14T23:52:02.620Z,1.9
2018-01-14T23:57:02.778Z,1.7
